sensor_id;sensor_type;location;lat;lon;timestamp;pressure;altitude;pressure_sealevel;temperature;humidity
62703;BME280;66022;50.448;18.122;2023-03-20T00:01:26;99157.97;;;7.39;62.04
62703;BME280;66022;50.448;18.122;2023-03-20T00:09:32;99156.34;;;7.44;60.92
62703;BME280;66022;50.448;18.122;2023-03-20T00:13:36;99155.92;;;7.53;60.73
62703;BME280;66022;50.448;18.122;2023-03-20T00:17:39;99154.88;;;7.62;61.46
62703;BME280;66022;50.448;18.122;2023-03-20T00:21:43;99154.52;;;7.72;60.54
62703;BME280;66022;50.448;18.122;2023-03-20T00:25:47;99155.68;;;7.79;61.44
62703;BME280;66022;50.448;18.122;2023-03-20T00:29:51;99155.03;;;7.84;61.46
62703;BME280;66022;50.448;18.122;2023-03-20T00:33:56;99154.65;;;7.86;61.61
62703;BME280;66022;50.448;18.122;2023-03-20T00:37:59;99155.00;;;7.86;61.71
62703;BME280;66022;50.448;18.122;2023-03-20T00:42:03;99154.82;;;7.88;60.78
62703;BME280;66022;50.448;18.122;2023-03-20T00:46:10;99154.91;;;7.87;63.18
62703;BME280;66022;50.448;18.122;2023-03-20T00:50:18;99155.14;;;7.89;60.30
62703;BME280;66022;50.448;18.122;2023-03-20T00:54:15;99154.94;;;7.90;60.61
62703;BME280;66022;50.448;18.122;2023-03-20T00:58:19;99154.00;;;7.86;61.06
62703;BME280;66022;50.448;18.122;2023-03-20T01:02:24;99153.23;;;7.87;61.49
62703;BME280;66022;50.448;18.122;2023-03-20T01:06:27;99150.67;;;7.84;64.54
62703;BME280;66022;50.448;18.122;2023-03-20T01:10:31;99150.66;;;7.87;61.02
62703;BME280;66022;50.448;18.122;2023-03-20T01:14:35;99151.37;;;7.89;61.72
62703;BME280;66022;50.448;18.122;2023-03-20T01:18:39;99152.61;;;7.89;62.05
62703;BME280;66022;50.448;18.122;2023-03-20T01:22:43;99153.27;;;7.91;62.46
62703;BME280;66022;50.448;18.122;2023-03-20T01:26:47;99154.30;;;7.88;64.81
62703;BME280;66022;50.448;18.122;2023-03-20T01:30:51;99156.19;;;7.84;63.55
62703;BME280;66022;50.448;18.122;2023-03-20T01:34:55;99158.61;;;7.79;63.29
62703;BME280;66022;50.448;18.122;2023-03-20T01:38:59;99159.85;;;7.72;63.28
62703;BME280;66022;50.448;18.122;2023-03-20T01:43:04;99161.66;;;7.69;63.04
62703;BME280;66022;50.448;18.122;2023-03-20T01:51:11;99165.19;;;7.67;62.57
62703;BME280;66022;50.448;18.122;2023-03-20T01:55:15;99167.02;;;7.68;62.02
62703;BME280;66022;50.448;18.122;2023-03-20T02:03:23;99170.15;;;7.72;62.51
62703;BME280;66022;50.448;18.122;2023-03-20T02:07:27;99172.08;;;7.72;63.33
62703;BME280;66022;50.448;18.122;2023-03-20T02:11:31;99172.06;;;7.72;62.50
62703;BME280;66022;50.448;18.122;2023-03-20T02:15:35;99170.71;;;7.73;62.24
62703;BME280;66022;50.448;18.122;2023-03-20T02:27:56;99164.98;;;7.82;62.57
62703;BME280;66022;50.448;18.122;2023-03-20T02:48:19;99161.35;;;7.81;63.98
62703;BME280;66022;50.448;18.122;2023-03-20T03:04:24;99166.71;;;7.80;64.58
62703;BME280;66022;50.448;18.122;2023-03-20T03:08:28;99167.00;;;7.75;65.60
62703;BME280;66022;50.448;18.122;2023-03-20T03:12:33;99168.22;;;7.73;64.37
62703;BME280;66022;50.448;18.122;2023-03-20T03:16:36;99169.69;;;7.68;73.05
62703;BME280;66022;50.448;18.122;2023-03-20T03:20:39;99171.71;;;7.68;69.98
62703;BME280;66022;50.448;18.122;2023-03-20T03:24:44;99172.22;;;7.66;69.28
62703;BME280;66022;50.448;18.122;2023-03-20T03:28:48;99171.17;;;7.63;71.58
62703;BME280;66022;50.448;18.122;2023-03-20T03:33:00;99170.94;;;7.61;70.76
62703;BME280;66022;50.448;18.122;2023-03-20T03:45:08;99168.25;;;7.62;69.87
62703;BME280;66022;50.448;18.122;2023-03-20T03:49:07;99166.24;;;7.63;71.89
62703;BME280;66022;50.448;18.122;2023-03-20T03:53:14;99164.63;;;7.65;71.74
62703;BME280;66022;50.448;18.122;2023-03-20T03:57:17;99164.72;;;7.64;74.50
62703;BME280;66022;50.448;18.122;2023-03-20T04:01:19;99163.78;;;7.65;72.23
62703;BME280;66022;50.448;18.122;2023-03-20T04:05:24;99164.65;;;7.64;71.65
62703;BME280;66022;50.448;18.122;2023-03-20T04:09:27;99165.51;;;7.61;72.57
62703;BME280;66022;50.448;18.122;2023-03-20T04:13:31;99167.14;;;7.58;72.62
62703;BME280;66022;50.448;18.122;2023-03-20T04:17:35;99169.60;;;7.55;74.06
62703;BME280;66022;50.448;18.122;2023-03-20T04:21:42;99171.36;;;7.53;72.50
62703;BME280;66022;50.448;18.122;2023-03-20T04:25:43;99173.41;;;7.50;72.92
62703;BME280;66022;50.448;18.122;2023-03-20T04:29:47;99174.56;;;7.45;72.31
62703;BME280;66022;50.448;18.122;2023-03-20T04:33:51;99175.12;;;7.39;72.81
62703;BME280;66022;50.448;18.122;2023-03-20T04:37:58;99176.68;;;7.34;73.87
62703;BME280;66022;50.448;18.122;2023-03-20T04:42:02;99177.03;;;7.34;72.27
62703;BME280;66022;50.448;18.122;2023-03-20T04:46:05;99177.76;;;7.35;75.81
62703;BME280;66022;50.448;18.122;2023-03-20T04:50:07;99178.78;;;7.40;72.25
62703;BME280;66022;50.448;18.122;2023-03-20T04:54:11;99180.77;;;7.48;71.66
62703;BME280;66022;50.448;18.122;2023-03-20T04:58:15;99181.08;;;7.53;73.83
62703;BME280;66022;50.448;18.122;2023-03-20T05:02:19;99182.56;;;7.60;73.59
62703;BME280;66022;50.448;18.122;2023-03-20T05:06:23;99184.50;;;7.61;80.46
62703;BME280;66022;50.448;18.122;2023-03-20T05:10:27;99186.60;;;7.65;73.43
62703;BME280;66022;50.448;18.122;2023-03-20T05:14:31;99189.61;;;7.68;74.13
62703;BME280;66022;50.448;18.122;2023-03-20T05:18:35;99191.53;;;7.68;74.86
62703;BME280;66022;50.448;18.122;2023-03-20T05:22:39;99193.66;;;7.69;74.08
62703;BME280;66022;50.448;18.122;2023-03-20T05:26:43;99195.03;;;7.67;79.58
62703;BME280;66022;50.448;18.122;2023-03-20T05:30:47;99196.95;;;7.68;74.41
62703;BME280;66022;50.448;18.122;2023-03-20T05:34:51;99199.02;;;7.69;75.43
62703;BME280;66022;50.448;18.122;2023-03-20T05:38:55;99202.12;;;7.69;76.93
62703;BME280;66022;50.448;18.122;2023-03-20T05:42:59;99204.71;;;7.70;76.68
62703;BME280;66022;50.448;18.122;2023-03-20T05:47:03;99206.39;;;7.69;82.00
62703;BME280;66022;50.448;18.122;2023-03-20T05:51:07;99208.42;;;7.68;78.24
62703;BME280;66022;50.448;18.122;2023-03-20T05:55:11;99210.67;;;7.68;77.57
62703;BME280;66022;50.448;18.122;2023-03-20T05:59:15;99211.69;;;7.66;79.19
62703;BME280;66022;50.448;18.122;2023-03-20T06:03:19;99212.77;;;7.67;79.06
62703;BME280;66022;50.448;18.122;2023-03-20T06:07:23;99214.01;;;7.67;83.05
62703;BME280;66022;50.448;18.122;2023-03-20T06:11:27;99213.51;;;7.69;80.90
62703;BME280;66022;50.448;18.122;2023-03-20T06:15:31;99214.47;;;7.72;80.30
62703;BME280;66022;50.448;18.122;2023-03-20T06:19:35;99215.16;;;7.76;80.73
62703;BME280;66022;50.448;18.122;2023-03-20T06:23:39;99215.75;;;7.84;79.66
62703;BME280;66022;50.448;18.122;2023-03-20T06:27:44;99217.24;;;7.92;81.45
62703;BME280;66022;50.448;18.122;2023-03-20T06:31:47;99220.19;;;8.03;79.19
62703;BME280;66022;50.448;18.122;2023-03-20T06:35:51;99222.99;;;8.15;80.03
62703;BME280;66022;50.448;18.122;2023-03-20T06:39:55;99225.50;;;8.28;78.88
62703;BME280;66022;50.448;18.122;2023-03-20T06:43:59;99227.59;;;8.42;79.43
62703;BME280;66022;50.448;18.122;2023-03-20T06:48:07;99229.99;;;8.55;80.12
62703;BME280;66022;50.448;18.122;2023-03-20T06:52:07;99232.54;;;8.70;78.52
62703;BME280;66022;50.448;18.122;2023-03-20T06:56:11;99235.39;;;8.81;85.86
62703;BME280;66022;50.448;18.122;2023-03-20T07:00:15;99238.39;;;8.92;79.40
62703;BME280;66022;50.448;18.122;2023-03-20T07:04:19;99240.69;;;9.01;79.41
62703;BME280;66022;50.448;18.122;2023-03-20T07:08:23;99243.78;;;9.07;81.88
62703;BME280;66022;50.448;18.122;2023-03-20T07:12:27;99245.75;;;9.14;80.29
62703;BME280;66022;50.448;18.122;2023-03-20T07:16:31;99247.97;;;9.17;88.24
62703;BME280;66022;50.448;18.122;2023-03-20T07:20:35;99249.97;;;9.23;80.31
62703;BME280;66022;50.448;18.122;2023-03-20T07:24:39;99251.58;;;9.27;80.07
62703;BME280;66022;50.448;18.122;2023-03-20T07:28:43;99253.96;;;9.30;80.64
62703;BME280;66022;50.448;18.122;2023-03-20T07:32:47;99255.08;;;9.33;80.68
62703;BME280;66022;50.448;18.122;2023-03-20T07:36:51;99255.83;;;9.33;86.98
62703;BME280;66022;50.448;18.122;2023-03-20T07:40:55;99257.08;;;9.35;80.77
62703;BME280;66022;50.448;18.122;2023-03-20T07:44:59;99257.95;;;9.36;81.99
62703;BME280;66022;50.448;18.122;2023-03-20T07:49:03;99258.62;;;9.36;83.54
62703;BME280;66022;50.448;18.122;2023-03-20T07:53:07;99258.95;;;9.37;82.24
62703;BME280;66022;50.448;18.122;2023-03-20T07:57:14;99261.86;;;9.39;86.18
62703;BME280;66022;50.448;18.122;2023-03-20T08:01:15;99263.53;;;9.44;81.55
62703;BME280;66022;50.448;18.122;2023-03-20T08:05:19;99265.33;;;9.51;82.17
62703;BME280;66022;50.448;18.122;2023-03-20T08:09:23;99266.35;;;9.59;81.78
62703;BME280;66022;50.448;18.122;2023-03-20T08:13:28;99267.54;;;9.69;81.20
62703;BME280;66022;50.448;18.122;2023-03-20T08:17:31;99269.53;;;9.77;83.35
62703;BME280;66022;50.448;18.122;2023-03-20T08:21:35;99270.97;;;9.87;81.10
62703;BME280;66022;50.448;18.122;2023-03-20T08:25:39;99271.42;;;9.98;79.17
62703;BME280;66022;50.448;18.122;2023-03-20T08:29:43;99270.43;;;10.09;79.45
62703;BME280;66022;50.448;18.122;2023-03-20T08:33:47;99269.69;;;10.21;79.68
62703;BME280;66022;50.448;18.122;2023-03-20T08:37:51;99269.54;;;10.35;80.67
62703;BME280;66022;50.448;18.122;2023-03-20T08:41:55;99270.33;;;10.49;78.75
62703;BME280;66022;50.448;18.122;2023-03-20T08:45:59;99271.48;;;10.61;82.61
62703;BME280;66022;50.448;18.122;2023-03-20T08:50:04;99273.18;;;10.76;79.11
62703;BME280;66022;50.448;18.122;2023-03-20T08:54:07;99275.22;;;10.88;78.19
62703;BME280;66022;50.448;18.122;2023-03-20T08:58:11;99276.95;;;10.98;79.27
62703;BME280;66022;50.448;18.122;2023-03-20T09:02:15;99278.02;;;11.13;76.60
62703;BME280;66022;50.448;18.122;2023-03-20T09:06:19;99279.13;;;11.26;81.40
62703;BME280;66022;50.448;18.122;2023-03-20T09:10:23;99281.48;;;11.43;75.91
62703;BME280;66022;50.448;18.122;2023-03-20T09:14:29;99282.36;;;11.62;74.78
62703;BME280;66022;50.448;18.122;2023-03-20T09:18:34;99283.40;;;11.79;75.19
62703;BME280;66022;50.448;18.122;2023-03-20T09:22:35;99283.22;;;12.00;75.09
62703;BME280;66022;50.448;18.122;2023-03-20T09:26:39;99282.07;;;12.17;75.83
62703;BME280;66022;50.448;18.122;2023-03-20T09:30:43;99280.53;;;12.35;73.30
62703;BME280;66022;50.448;18.122;2023-03-20T09:34:47;99278.75;;;12.50;73.25
62703;BME280;66022;50.448;18.122;2023-03-20T09:38:51;99277.60;;;12.63;73.02
62703;BME280;66022;50.448;18.122;2023-03-20T09:55:12;99270.15;;;13.02;72.12
62703;BME280;66022;50.448;18.122;2023-03-20T09:59:13;99269.86;;;13.09;72.85
62703;BME280;66022;50.448;18.122;2023-03-20T10:03:20;99269.85;;;13.21;70.89
62703;BME280;66022;50.448;18.122;2023-03-20T10:07:19;99269.33;;;13.36;70.96
62703;BME280;66022;50.448;18.122;2023-03-20T10:15:32;99267.78;;;13.76;69.32
62703;BME280;66022;50.448;18.122;2023-03-20T10:19:33;99266.05;;;13.95;69.54
62703;BME280;66022;50.448;18.122;2023-03-20T10:23:39;99264.48;;;14.14;69.03
62703;BME280;66022;50.448;18.122;2023-03-20T10:27:42;99262.83;;;14.32;67.28
62703;BME280;66022;50.448;18.122;2023-03-20T10:35:49;99257.84;;;14.65;66.55
62703;BME280;66022;50.448;18.122;2023-03-20T10:43:55;99255.05;;;14.83;66.57
62703;BME280;66022;50.448;18.122;2023-03-20T10:48:00;99254.01;;;14.84;66.59
62703;BME280;66022;50.448;18.122;2023-03-20T10:52:04;99253.98;;;14.84;66.42
62703;BME280;66022;50.448;18.122;2023-03-20T10:56:08;99252.89;;;14.80;66.73
62703;BME280;66022;50.448;18.122;2023-03-20T11:00:28;99252.50;;;14.77;65.95
62703;BME280;66022;50.448;18.122;2023-03-20T11:04:15;99251.89;;;14.73;66.97
62703;BME280;66022;50.448;18.122;2023-03-20T11:08:20;99250.74;;;14.66;67.04
62703;BME280;66022;50.448;18.122;2023-03-20T11:12:23;99250.12;;;14.64;67.45
62703;BME280;66022;50.448;18.122;2023-03-20T11:16:30;99249.67;;;14.61;69.41
62703;BME280;66022;50.448;18.122;2023-03-20T11:20:32;99248.61;;;14.62;67.92
62703;BME280;66022;50.448;18.122;2023-03-20T11:28:40;99245.23;;;14.62;67.59
62703;BME280;66022;50.448;18.122;2023-03-20T11:32:47;99244.19;;;14.67;68.11
62703;BME280;66022;50.448;18.122;2023-03-20T11:40:51;99239.95;;;14.73;68.22
62703;BME280;66022;50.448;18.122;2023-03-20T11:44:56;99239.31;;;14.77;68.38
62703;BME280;66022;50.448;18.122;2023-03-20T11:49:04;99237.86;;;14.79;68.56
62703;BME280;66022;50.448;18.122;2023-03-20T11:53:16;99234.78;;;14.82;67.19
62703;BME280;66022;50.448;18.122;2023-03-20T11:57:10;99231.70;;;14.87;67.71
62703;BME280;66022;50.448;18.122;2023-03-20T12:01:12;99229.38;;;14.97;66.28
62703;BME280;66022;50.448;18.122;2023-03-20T12:13:25;99222.47;;;15.33;66.14
62703;BME280;66022;50.448;18.122;2023-03-20T12:21:38;99216.86;;;15.53;65.07
62703;BME280;66022;50.448;18.122;2023-03-20T12:25:36;99213.73;;;15.59;66.05
62703;BME280;66022;50.448;18.122;2023-03-20T12:29:46;99211.99;;;15.60;65.62
62703;BME280;66022;50.448;18.122;2023-03-20T12:33:48;99209.72;;;15.62;65.59
62703;BME280;66022;50.448;18.122;2023-03-20T12:37:48;99207.11;;;15.61;66.48
62703;BME280;66022;50.448;18.122;2023-03-20T12:41:58;99205.41;;;15.60;65.94
62703;BME280;66022;50.448;18.122;2023-03-20T12:45:59;99203.33;;;15.57;66.60
62703;BME280;66022;50.448;18.122;2023-03-20T12:54:11;99200.53;;;15.53;66.19
62703;BME280;66022;50.448;18.122;2023-03-20T13:06:29;99197.08;;;15.39;67.27
62703;BME280;66022;50.448;18.122;2023-03-20T13:10:20;99198.08;;;15.37;65.39
62703;BME280;66022;50.448;18.122;2023-03-20T13:38:49;99190.35;;;15.35;66.05
62703;BME280;66022;50.448;18.122;2023-03-20T14:03:14;99177.48;;;15.36;65.21
62703;BME280;66022;50.448;18.122;2023-03-20T14:19:28;99162.89;;;15.23;65.57
62703;BME280;66022;50.448;18.122;2023-03-20T14:23:35;99160.72;;;15.22;65.86
62703;BME280;66022;50.448;18.122;2023-03-20T14:27:51;99157.89;;;15.19;65.95
62703;BME280;66022;50.448;18.122;2023-03-20T14:31:40;99156.02;;;15.17;65.58
62703;BME280;66022;50.448;18.122;2023-03-20T14:35:45;99154.19;;;15.16;65.24
62703;BME280;66022;50.448;18.122;2023-03-20T14:48:01;99146.59;;;15.14;65.90
62703;BME280;66022;50.448;18.122;2023-03-20T14:52:08;99145.00;;;15.13;65.39
62703;BME280;66022;50.448;18.122;2023-03-20T14:56:12;99143.45;;;15.08;66.46
62703;BME280;66022;50.448;18.122;2023-03-20T15:00:17;99141.61;;;15.05;65.77
62703;BME280;66022;50.448;18.122;2023-03-20T15:08:17;99137.72;;;14.95;66.42
62703;BME280;66022;50.448;18.122;2023-03-20T15:12:22;99136.86;;;14.93;66.17
62703;BME280;66022;50.448;18.122;2023-03-20T15:16:25;99136.17;;;14.90;67.54
62703;BME280;66022;50.448;18.122;2023-03-20T15:20:28;99136.67;;;14.94;65.78
62703;BME280;66022;50.448;18.122;2023-03-20T15:24:32;99136.49;;;14.97;65.72
62703;BME280;66022;50.448;18.122;2023-03-20T15:28:36;99136.83;;;14.94;65.64
62703;BME280;66022;50.448;18.122;2023-03-20T15:32:40;99136.67;;;14.94;65.83
62703;BME280;66022;50.448;18.122;2023-03-20T15:36:45;99136.84;;;14.90;67.54
62703;BME280;66022;50.448;18.122;2023-03-20T15:40:48;99136.39;;;14.88;66.74
62703;BME280;66022;50.448;18.122;2023-03-20T15:44:53;99136.85;;;14.86;67.03
62703;BME280;66022;50.448;18.122;2023-03-20T15:48:56;99136.00;;;14.80;67.43
62703;BME280;66022;50.448;18.122;2023-03-20T15:53:00;99135.57;;;14.76;67.98
62703;BME280;66022;50.448;18.122;2023-03-20T15:57:04;99135.72;;;14.68;69.98
62703;BME280;66022;50.448;18.122;2023-03-20T16:01:08;99135.03;;;14.62;68.76
62703;BME280;66022;50.448;18.122;2023-03-20T16:05:12;99136.47;;;14.55;68.47
62703;BME280;66022;50.448;18.122;2023-03-20T16:09:16;99142.47;;;14.48;69.10
62703;BME280;66022;50.448;18.122;2023-03-20T16:13:20;99152.56;;;14.41;69.38
62703;BME280;66022;50.448;18.122;2023-03-20T16:17:24;99161.94;;;14.28;75.88
62703;BME280;66022;50.448;18.122;2023-03-20T16:21:30;99172.42;;;14.14;74.38
62703;BME280;66022;50.448;18.122;2023-03-20T16:25:33;99179.02;;;13.97;74.67
62703;BME280;66022;50.448;18.122;2023-03-20T16:29:36;99181.06;;;13.78;74.38
62703;BME280;66022;50.448;18.122;2023-03-20T16:33:40;99181.17;;;13.61;75.76
62703;BME280;66022;50.448;18.122;2023-03-20T16:41:51;99182.59;;;13.30;76.03
62703;BME280;66022;50.448;18.122;2023-03-20T16:45:52;99181.13;;;13.13;77.33
62703;BME280;66022;50.448;18.122;2023-03-20T16:54:00;99176.90;;;12.75;78.07
62703;BME280;66022;50.448;18.122;2023-03-20T16:58:04;99179.37;;;12.55;80.48
62703;BME280;66022;50.448;18.122;2023-03-20T17:10:19;99196.44;;;12.15;80.41
62703;BME280;66022;50.448;18.122;2023-03-20T17:14:20;99198.80;;;12.06;80.07
62703;BME280;66022;50.448;18.122;2023-03-20T17:18:24;99200.33;;;11.95;82.29
62703;BME280;66022;50.448;18.122;2023-03-20T17:22:28;99202.25;;;11.88;81.42
62703;BME280;66022;50.448;18.122;2023-03-20T17:26:32;99203.70;;;11.76;89.88
62703;BME280;66022;50.448;18.122;2023-03-20T17:30:36;99204.05;;;11.70;81.83
62703;BME280;66022;50.448;18.122;2023-03-20T17:34:40;99205.66;;;11.63;82.10
62703;BME280;66022;50.448;18.122;2023-03-20T17:38:44;99206.22;;;11.54;83.77
62703;BME280;66022;50.448;18.122;2023-03-20T17:42:48;99207.14;;;11.48;83.12
62703;BME280;66022;50.448;18.122;2023-03-20T17:46:52;99208.62;;;11.40;91.46
62703;BME280;66022;50.448;18.122;2023-03-20T17:50:56;99208.76;;;11.34;84.87
62703;BME280;66022;50.448;18.122;2023-03-20T17:55:00;99210.19;;;11.28;84.82
62703;BME280;66022;50.448;18.122;2023-03-20T17:59:04;99211.77;;;11.22;87.39
62703;BME280;66022;50.448;18.122;2023-03-20T18:03:08;99213.67;;;11.17;87.02
62703;BME280;66022;50.448;18.122;2023-03-20T18:07:12;99215.15;;;11.11;92.65
62703;BME280;66022;50.448;18.122;2023-03-20T18:11:16;99216.19;;;11.08;88.62
62703;BME280;66022;50.448;18.122;2023-03-20T18:15:20;99217.74;;;11.05;87.57
62703;BME280;66022;50.448;18.122;2023-03-20T18:23:36;99222.09;;;11.03;88.57
62703;BME280;66022;50.448;18.122;2023-03-20T18:27:34;99224.44;;;11.03;90.64
62703;BME280;66022;50.448;18.122;2023-03-20T18:31:36;99226.48;;;11.05;87.86
62703;BME280;66022;50.448;18.122;2023-03-20T18:35:40;99229.97;;;11.08;87.62
62703;BME280;66022;50.448;18.122;2023-03-20T18:39:44;99233.14;;;11.08;89.19
62703;BME280;66022;50.448;18.122;2023-03-20T18:43:48;99235.44;;;11.07;87.91
62703;BME280;66022;50.448;18.122;2023-03-20T18:47:52;99238.76;;;11.05;90.77
62703;BME280;66022;50.448;18.122;2023-03-20T18:51:56;99241.28;;;11.05;88.35
62703;BME280;66022;50.448;18.122;2023-03-20T18:56:00;99244.79;;;11.03;92.51
62703;BME280;66022;50.448;18.122;2023-03-20T19:00:08;99247.19;;;11.01;89.80
62703;BME280;66022;50.448;18.122;2023-03-20T19:04:08;99250.28;;;10.98;89.24
62703;BME280;66022;50.448;18.122;2023-03-20T19:08:13;99253.30;;;10.92;91.69
62703;BME280;66022;50.448;18.122;2023-03-20T19:12:16;99255.74;;;10.88;90.20
62703;BME280;66022;50.448;18.122;2023-03-20T19:16:21;99257.48;;;10.81;97.17
62703;BME280;66022;50.448;18.122;2023-03-20T19:24:28;99261.81;;;10.75;90.38
62703;BME280;66022;50.448;18.122;2023-03-20T19:28:35;99263.22;;;10.69;91.52
62703;BME280;66022;50.448;18.122;2023-03-20T19:32:36;99264.01;;;10.68;90.58
62703;BME280;66022;50.448;18.122;2023-03-20T19:36:40;99266.20;;;10.64;98.23
62703;BME280;66022;50.448;18.122;2023-03-20T19:44:48;99266.27;;;10.60;91.30
62703;BME280;66022;50.448;18.122;2023-03-20T19:48:52;99265.87;;;10.56;92.26
62703;BME280;66022;50.448;18.122;2023-03-20T19:52:56;99266.09;;;10.54;90.82
62703;BME280;66022;50.448;18.122;2023-03-20T19:57:00;99266.41;;;10.51;97.60
62703;BME280;66022;50.448;18.122;2023-03-20T20:01:04;99266.20;;;10.49;91.78
62703;BME280;66022;50.448;18.122;2023-03-20T20:05:17;99264.73;;;10.47;91.39
62703;BME280;66022;50.448;18.122;2023-03-20T20:09:12;99261.89;;;10.45;92.72
62703;BME280;66022;50.448;18.122;2023-03-20T20:13:17;99259.00;;;10.44;90.96
62703;BME280;66022;50.448;18.122;2023-03-20T20:17:20;99256.97;;;10.41;95.92
62703;BME280;66022;50.448;18.122;2023-03-20T20:21:25;99254.85;;;10.38;92.02
62703;BME280;66022;50.448;18.122;2023-03-20T20:25:28;99251.72;;;10.34;91.86
62703;BME280;66022;50.448;18.122;2023-03-20T20:29:32;99248.13;;;10.30;93.34
62703;BME280;66022;50.448;18.122;2023-03-20T20:33:36;99245.39;;;10.27;92.29
62703;BME280;66022;50.448;18.122;2023-03-20T20:37:40;99244.36;;;10.25;95.26
62703;BME280;66022;50.448;18.122;2023-03-20T20:41:44;99243.19;;;10.24;93.22
62703;BME280;66022;50.448;18.122;2023-03-20T20:45:48;99241.39;;;10.22;92.66
62703;BME280;66022;50.448;18.122;2023-03-20T20:49:52;99239.31;;;10.20;93.46
62703;BME280;66022;50.448;18.122;2023-03-20T20:53:56;99237.14;;;10.20;93.16
62703;BME280;66022;50.448;18.122;2023-03-20T20:58:00;99234.77;;;10.18;94.93
62703;BME280;66022;50.448;18.122;2023-03-20T21:02:04;99232.65;;;10.18;92.02
62703;BME280;66022;50.448;18.122;2023-03-20T21:06:09;99231.68;;;10.15;98.02
62703;BME280;66022;50.448;18.122;2023-03-20T21:10:13;99231.27;;;10.15;93.53
62703;BME280;66022;50.448;18.122;2023-03-20T21:14:16;99230.31;;;10.13;92.95
62703;BME280;66022;50.448;18.122;2023-03-20T21:18:20;99230.44;;;10.08;95.00
62703;BME280;66022;50.448;18.122;2023-03-20T21:22:24;99230.79;;;10.06;93.85
62703;BME280;66022;50.448;18.122;2023-03-20T21:26:29;99230.38;;;10.02;100.00
62703;BME280;66022;50.448;18.122;2023-03-20T21:30:32;99229.50;;;10.00;94.17
62703;BME280;66022;50.448;18.122;2023-03-20T21:34:36;99229.36;;;9.99;93.60
62703;BME280;66022;50.448;18.122;2023-03-20T21:38:40;99227.72;;;9.97;94.71
62703;BME280;66022;50.448;18.122;2023-03-20T21:42:44;99227.89;;;9.97;93.57
62703;BME280;66022;50.448;18.122;2023-03-20T21:46:48;99228.10;;;9.95;100.00
62703;BME280;66022;50.448;18.122;2023-03-20T21:50:52;99228.40;;;9.96;93.82
62703;BME280;66022;50.448;18.122;2023-03-20T21:54:56;99228.38;;;9.96;93.75
62703;BME280;66022;50.448;18.122;2023-03-20T21:59:00;99228.64;;;9.96;94.91
62703;BME280;66022;50.448;18.122;2023-03-20T22:03:04;99227.39;;;9.97;94.24
62703;BME280;66022;50.448;18.122;2023-03-20T22:07:08;99227.80;;;9.96;98.74
62703;BME280;66022;50.448;18.122;2023-03-20T22:11:12;99226.70;;;9.96;94.01
62703;BME280;66022;50.448;18.122;2023-03-20T22:15:16;99226.62;;;9.96;94.26
62703;BME280;66022;50.448;18.122;2023-03-20T22:19:20;99225.90;;;9.95;95.80
62703;BME280;66022;50.448;18.122;2023-03-20T22:23:24;99225.73;;;9.95;94.59
62703;BME280;66022;50.448;18.122;2023-03-20T22:27:28;99225.48;;;9.95;98.10
62703;BME280;66022;50.448;18.122;2023-03-20T22:31:32;99224.66;;;9.95;94.67
62703;BME280;66022;50.448;18.122;2023-03-20T22:35:39;99223.39;;;9.94;93.72
62703;BME280;66022;50.448;18.122;2023-03-20T22:39:40;99223.55;;;9.94;94.92
62703;BME280;66022;50.448;18.122;2023-03-20T22:43:44;99223.63;;;9.96;94.64
62703;BME280;66022;50.448;18.122;2023-03-20T22:47:48;99224.73;;;9.95;97.32
62703;BME280;66022;50.448;18.122;2023-03-20T22:51:52;99227.12;;;9.97;94.45
62703;BME280;66022;50.448;18.122;2023-03-20T22:55:56;99229.52;;;9.98;95.78
62703;BME280;66022;50.448;18.122;2023-03-20T23:00:08;99232.17;;;10.01;94.77
62703;BME280;66022;50.448;18.122;2023-03-20T23:04:12;99235.25;;;10.06;92.96
62703;BME280;66022;50.448;18.122;2023-03-20T23:08:16;99237.77;;;10.09;95.27
62703;BME280;66022;50.448;18.122;2023-03-20T23:12:13;99240.73;;;10.17;92.40
62703;BME280;66022;50.448;18.122;2023-03-20T23:16:16;99242.25;;;10.21;99.02
62703;BME280;66022;50.448;18.122;2023-03-20T23:20:20;99242.47;;;10.27;93.11
62703;BME280;66022;50.448;18.122;2023-03-20T23:24:24;99243.39;;;10.30;92.60
62703;BME280;66022;50.448;18.122;2023-03-20T23:28:28;99244.53;;;10.28;94.45
62703;BME280;66022;50.448;18.122;2023-03-20T23:32:34;99245.93;;;10.28;93.48
62703;BME280;66022;50.448;18.122;2023-03-20T23:36:36;99246.72;;;10.24;100.00
62703;BME280;66022;50.448;18.122;2023-03-20T23:40:40;99247.49;;;10.22;94.37
62703;BME280;66022;50.448;18.122;2023-03-20T23:44:44;99247.03;;;10.20;93.70
62703;BME280;66022;50.448;18.122;2023-03-20T23:48:48;99244.76;;;10.17;94.72
62703;BME280;66022;50.448;18.122;2023-03-20T23:52:52;99240.91;;;10.16;93.51
62703;BME280;66022;50.448;18.122;2023-03-20T23:56:56;99237.36;;;10.13;100.00
